Time;durP1;ratioP1;P1;durP2;ratioP2;P2;SDS_P1;SDS_P2;PMS_P1;PMS_P2;Temp;Humidity;BMP_temperature;BMP_pressure;BME280_temperature;BME280_humidity;BME280_pressure;Samples;Min_cycle;Max_cycle;Signal;HPM_P1;HPM_P2
2022/06/03 00:01:29;;;;;;;1.30;1.20;;;;;20.90;100876.00;;;;2070421;28;20209;-58
2022/06/03 00:02:43;;;;;;;1.13;1.00;;;;;20.90;100877.00;;;;2061151;28;20221;-63
2022/06/03 00:03:55;;;;;;;1.13;1.05;;;;;20.90;100871.00;;;;2070864;28;20213;-57
2022/06/03 00:05:16;;;;;;;1.10;1.00;;;;;20.90;100867.00;;;;2070157;28;20211;-55
2022/06/03 00:07:05;;;;;;;1.08;0.95;;;;;20.90;100867.00;;;;2071081;28;20209;-57
2022/06/03 00:08:39;;;;;;;1.05;0.95;;;;;20.90;100874.00;;;;2042489;28;20226;-57
2022/06/03 00:09:39;;;;;;;0.95;0.90;;;;;20.90;100868.00;;;;2060425;28;20230;-56
2022/06/03 00:10:46;;;;;;;1.03;1.00;;;;;20.90;100875.00;;;;2076408;28;20609;-56
2022/06/03 00:12:04;;;;;;;1.65;1.27;;;;;20.90;100874.00;;;;2070471;28;20218;-57
2022/06/03 00:13:44;;;;;;;1.38;1.27;;;;;20.90;100865.00;;;;2070513;28;20283;-57
2022/06/03 00:14:57;;;;;;;1.30;1.20;;;;;20.90;100870.00;;;;2073754;28;20229;-59
2022/06/03 00:16:03;;;;;;;1.10;1.00;;;;;20.90;100870.00;;;;2056944;28;20289;-60
2022/06/03 00:17:25;;;;;;;1.10;1.00;;;;;20.90;100861.00;;;;2071525;28;20224;-57
2022/06/03 00:19:07;;;;;;;1.30;1.20;;;;;20.90;100866.00;;;;2072046;28;20214;-56
2022/06/03 00:20:46;;;;;;;1.20;1.10;;;;;20.90;100857.00;;;;2063088;28;20214;-57
2022/06/03 00:22:04;;;;;;;1.30;1.20;;;;;20.90;100858.00;;;;2064287;28;20293;-57
2022/06/03 00:23:10;;;;;;;1.00;0.90;;;;;20.90;100853.00;;;;2065960;28;20249;-56
2022/06/03 00:24:38;;;;;;;1.13;1.00;;;;;20.90;100855.00;;;;2066513;28;20214;-59
2022/06/03 00:26:09;;;;;;;1.25;1.15;;;;;20.90;100854.00;;;;2069224;28;20221;-59
2022/06/03 00:27:33;;;;;;;1.10;1.00;;;;;20.90;100857.00;;;;2075961;28;20217;-57
2022/06/03 00:28:40;;;;;;;1.50;1.25;;;;;20.90;100855.00;;;;2067172;28;20213;-55
2022/06/03 00:29:58;;;;;;;3.83;1.30;;;;;20.90;100855.00;;;;2074845;28;20273;-57
2022/06/03 00:31:10;;;;;;;1.10;1.00;;;;;20.90;100855.00;;;;2075845;28;20224;-56
2022/06/03 00:32:16;;;;;;;1.15;1.05;;;;;20.90;100855.00;;;;2070374;28;20682;-56
2022/06/03 00:33:35;;;;;;;1.25;1.15;;;;;20.90;100854.00;;;;2060286;28;20215;-61
2022/06/03 00:35:06;;;;;;;1.38;1.27;;;;;20.90;100852.00;;;;2064889;28;20284;-58
2022/06/03 00:36:18;;;;;;;1.20;1.10;;;;;20.90;100853.00;;;;2066622;28;20249;-56
2022/06/03 00:37:53;;;;;;;0.95;0.85;;;;;20.90;100857.00;;;;2070442;28;20213;-58
2022/06/03 00:39:14;;;;;;;1.20;1.10;;;;;20.90;100859.00;;;;2063739;28;20249;-55
2022/06/03 00:40:27;;;;;;;1.40;1.30;;;;;20.90;100849.00;;;;2070380;28;20269;-57
2022/06/03 00:41:36;;;;;;;1.10;1.00;;;;;20.90;100856.00;;;;2077273;28;20224;-59
2022/06/03 00:42:51;;;;;;;1.20;1.05;;;;;20.90;100851.00;;;;2075012;28;20225;-56
2022/06/03 00:44:12;;;;;;;0.88;0.77;;;;;20.90;100849.00;;;;2074309;28;20769;-55
2022/06/03 00:45:25;;;;;;;1.00;0.90;;;;;20.90;100849.00;;;;2077326;28;20213;-59
2022/06/03 00:47:03;;;;;;;1.50;1.40;;;;;20.90;100835.00;;;;2070927;28;20216;-57
2022/06/03 00:48:11;;;;;;;1.85;1.00;;;;;20.90;100850.00;;;;2073765;28;20578;-57
2022/06/03 00:49:25;;;;;;;1.23;1.10;;;;;20.90;100852.00;;;;2060874;28;20253;-56
2022/06/03 00:50:31;;;;;;;1.40;1.30;;;;;20.90;100850.00;;;;2067980;28;20910;-56
2022/06/03 00:51:44;;;;;;;1.42;1.33;;;;;20.90;100856.00;;;;2071156;28;20218;-56
2022/06/03 00:52:47;;;;;;;1.38;1.27;;;;;20.90;100846.00;;;;2058235;28;20227;-58
2022/06/03 00:54:19;;;;;;;1.20;1.10;;;;;20.90;100844.00;;;;2046224;28;20692;-56
2022/06/03 00:55:28;;;;;;;0.95;0.85;;;;;20.90;100855.00;;;;2061249;28;20214;-57
2022/06/03 00:57:07;;;;;;;1.33;1.08;;;;;20.90;100839.00;;;;2070774;28;20218;-58
2022/06/03 00:58:25;;;;;;;1.10;1.00;;;;;20.90;100826.00;;;;2061339;28;20274;-57
2022/06/03 00:59:56;;;;;;;1.10;0.90;;;;;20.90;100836.00;;;;2074689;28;20691;-55
2022/06/03 01:01:07;;;;;;;1.30;1.20;;;;;20.90;100833.00;;;;2069696;28;20234;-62
2022/06/03 01:02:19;;;;;;;1.20;1.02;;;;;20.90;100831.00;;;;2067622;28;20252;-58
2022/06/03 01:03:35;;;;;;;1.10;1.00;;;;;20.90;100824.00;;;;2066517;28;20229;-58
2022/06/03 01:04:42;;;;;;;1.40;1.15;;;;;20.90;100837.00;;;;2064891;28;20717;-57
2022/06/03 01:06:04;;;;;;;1.10;1.00;;;;;20.90;100823.00;;;;2062929;28;20815;-55
2022/06/03 01:07:25;;;;;;;1.45;1.33;;;;;20.90;100834.00;;;;2070326;28;20694;-58
2022/06/03 01:08:53;;;;;;;1.25;1.15;;;;;20.90;100827.00;;;;2070770;28;20829;-57
2022/06/03 01:10:04;;;;;;;1.30;1.20;;;;;20.90;100844.00;;;;2070711;28;20210;-57
2022/06/03 01:11:38;;;;;;;1.10;1.00;;;;;20.90;100826.00;;;;2062933;28;20300;-55
2022/06/03 01:12:55;;;;;;;1.10;1.00;;;;;20.80;100827.00;;;;2068351;28;20773;-56
2022/06/03 01:14:01;;;;;;;1.10;1.00;;;;;20.90;100831.00;;;;2067591;28;20240;-57
2022/06/03 01:15:09;;;;;;;1.42;1.33;;;;;20.90;100826.00;;;;2071230;28;20699;-57
2022/06/03 01:16:22;;;;;;;2.03;1.05;;;;;20.80;100819.00;;;;2061737;28;20234;-55
2022/06/03 01:18:00;;;;;;;1.35;1.25;;;;;20.80;100824.00;;;;2066604;28;20309;-57
2022/06/03 01:19:44;;;;;;;1.08;0.98;;;;;20.80;100832.00;;;;2074083;28;20198;-58
2022/06/03 01:21:12;;;;;;;1.25;1.15;;;;;20.80;100828.00;;;;2070935;28;21403;-57
2022/06/03 01:22:34;;;;;;;1.10;1.00;;;;;20.90;100831.00;;;;2071402;28;20666;-57
2022/06/03 01:24:01;;;;;;;1.55;1.20;;;;;20.80;100826.00;;;;2071760;28;20690;-58
2022/06/03 01:25:04;;;;;;;1.10;1.00;;;;;20.80;100837.00;;;;2070850;28;20234;-55
2022/06/03 01:26:14;;;;;;;1.00;0.90;;;;;20.80;100833.00;;;;2070061;28;20217;-57
2022/06/03 01:27:31;;;;;;;1.20;1.10;;;;;20.80;100829.00;;;;2069154;28;20289;-57
2022/06/03 01:28:45;;;;;;;1.10;1.00;;;;;20.80;100832.00;;;;2071406;28;20549;-58
2022/06/03 01:30:25;;;;;;;1.20;1.10;;;;;20.80;100830.00;;;;2072064;28;20209;-57
2022/06/03 01:31:44;;;;;;;1.60;1.27;;;;;20.80;100829.00;;;;2075278;28;20217;-57
2022/06/03 01:32:47;;;;;;;1.30;1.20;;;;;20.80;100828.00;;;;2072808;28;20308;-60
2022/06/03 01:34:02;;;;;;;1.20;1.10;;;;;20.80;100827.00;;;;2068333;28;20206;-58
2022/06/03 01:35:27;;;;;;;1.63;1.10;;;;;20.80;100832.00;;;;2079699;28;20209;-57
2022/06/03 01:36:40;;;;;;;1.27;1.17;;;;;20.80;100829.00;;;;2075503;28;20218;-57
2022/06/03 01:37:52;;;;;;;1.08;0.98;;;;;20.80;100820.00;;;;2078354;28;20761;-58
2022/06/03 01:39:14;;;;;;;1.10;1.00;;;;;20.80;100823.00;;;;2069077;28;20206;-60
2022/06/03 01:40:21;;;;;;;1.15;1.05;;;;;20.80;100818.00;;;;2079965;28;20213;-61
2022/06/03 01:42:11;;;;;;;1.20;1.10;;;;;20.80;100824.00;;;;2075852;28;20309;-57
2022/06/03 01:43:33;;;;;;;1.40;1.25;;;;;20.80;100825.00;;;;2069369;28;20581;-56
2022/06/03 01:44:38;;;;;;;1.02;0.93;;;;;20.80;100824.00;;;;2076230;28;20217;-56
2022/06/03 01:45:59;;;;;;;1.20;1.10;;;;;20.80;100823.00;;;;2075566;28;20228;-57
2022/06/03 01:47:21;;;;;;;1.38;1.27;;;;;20.80;100822.00;;;;2063621;28;20698;-56
2022/06/03 01:48:33;;;;;;;2.17;0.98;;;;;20.80;100822.00;;;;2067293;28;20261;-58
2022/06/03 01:49:45;;;;;;;1.25;1.15;;;;;20.80;100819.00;;;;2071482;28;20242;-56
2022/06/03 01:50:48;;;;;;;1.70;1.42;;;;;20.60;100814.00;;;;2068491;28;20765;-58
2022/06/03 01:52:14;;;;;;;0.88;0.88;;;;;20.80;100821.00;;;;2065615;28;20218;-57
2022/06/03 01:53:30;;;;;;;1.00;0.90;;;;;20.80;100814.00;;;;2072318;28;20280;-57
2022/06/03 01:55:04;;;;;;;1.35;1.08;;;;;20.80;100810.00;;;;2078805;28;20221;-57
2022/06/03 01:56:07;;;;;;;1.33;1.23;;;;;20.80;100816.00;;;;2062878;28;20223;-56
2022/06/03 01:57:20;;;;;;;1.20;1.10;;;;;20.80;100812.00;;;;2065257;28;20246;-62
2022/06/03 01:58:24;;;;;;;1.25;1.15;;;;;20.80;100811.00;;;;2076206;28;20225;-55
2022/06/03 01:59:27;;;;;;;1.20;1.10;;;;;20.80;100816.00;;;;2072488;28;20297;-58
2022/06/03 02:00:32;;;;;;;1.15;1.05;;;;;20.80;100818.00;;;;2079505;28;20765;-61
2022/06/03 02:02:07;;;;;;;1.10;1.00;;;;;20.80;100810.00;;;;2076718;28;20222;-56
2022/06/03 02:03:34;;;;;;;1.35;1.25;;;;;20.80;100813.00;;;;2071967;28;20705;-60
2022/06/03 02:05:04;;;;;;;1.40;1.30;;;;;20.80;100817.00;;;;2054753;28;20227;-57
2022/06/03 02:06:41;;;;;;;1.48;1.30;;;;;20.80;100811.00;;;;2078673;28;20216;-58
2022/06/03 02:07:55;;;;;;;1.20;1.10;;;;;20.80;100813.00;;;;2080009;28;20601;-56
2022/06/03 02:09:09;;;;;;;1.35;1.10;;;;;20.80;100812.00;;;;2079689;28;20247;-55
2022/06/03 02:10:41;;;;;;;1.52;1.30;;;;;20.80;100803.00;;;;2071337;28;20216;-59
2022/06/03 02:11:49;;;;;;;1.25;1.10;;;;;20.80;100801.00;;;;2070709;28;20211;-57
2022/06/03 02:13:27;;;;;;;1.23;1.13;;;;;20.80;100805.00;;;;2064487;28;20235;-58
2022/06/03 02:14:53;;;;;;;1.08;0.98;;;;;20.80;100808.00;;;;2052447;28;20227;-58
2022/06/03 02:16:02;;;;;;;1.25;1.15;;;;;20.80;100807.00;;;;2075043;28;20218;-56
2022/06/03 02:17:29;;;;;;;1.00;0.90;;;;;20.80;100797.00;;;;2071160;28;20218;-59
2022/06/03 02:18:48;;;;;;;1.35;1.25;;;;;20.80;100797.00;;;;2071107;28;20738;-57
2022/06/03 02:20:25;;;;;;;1.08;1.05;;;;;20.80;100799.00;;;;2077274;28;20218;-60
2022/06/03 02:21:25;;;;;;;1.30;1.20;;;;;20.80;100804.00;;;;2075807;28;20218;-55
2022/06/03 02:22:44;;;;;;;1.30;1.20;;;;;20.80;100801.00;;;;2071736;28;20574;-54
2022/06/03 02:24:12;;;;;;;1.25;1.15;;;;;20.80;100796.00;;;;2070858;28;20237;-59
2022/06/03 02:25:18;;;;;;;1.20;1.10;;;;;20.80;100791.00;;;;2071078;28;20718;-56
2022/06/03 02:26:43;;;;;;;1.40;1.30;;;;;20.80;100798.00;;;;2078714;28;20228;-56
2022/06/03 02:28:01;;;;;;;1.17;1.08;;;;;20.80;100799.00;;;;2080166;28;20209;-58
2022/06/03 02:30:34;;;;;;;1.48;1.38;;;;;20.80;100801.00;;;;2079938;28;20217;-58
2022/06/03 02:31:43;;;;;;;1.20;1.00;;;;;20.80;100794.00;;;;2079500;28;20209;-55
2022/06/03 02:32:48;;;;;;;1.38;1.05;;;;;20.80;100797.00;;;;2072517;28;20718;-58
2022/06/03 02:33:54;;;;;;;1.20;1.10;;;;;20.80;100803.00;;;;2066643;28;20225;-59
2022/06/03 02:35:32;;;;;;;1.20;1.10;;;;;20.80;100798.00;;;;2071458;28;20603;-57
2022/06/03 02:36:41;;;;;;;1.65;1.55;;;;;20.80;100794.00;;;;2074879;28;20218;-59
2022/06/03 02:38:00;;;;;;;1.30;1.13;;;;;20.80;100795.00;;;;2078808;28;20213;-59
2022/06/03 02:39:36;;;;;;;1.50;1.40;;;;;20.80;100792.00;;;;2072317;28;20214;-57
2022/06/03 02:40:55;;;;;;;1.35;1.25;;;;;20.80;100801.00;;;;2070714;28;20760;-56
2022/06/03 02:42:13;;;;;;;1.25;1.15;;;;;20.80;100805.00;;;;2073388;28;20210;-57
2022/06/03 02:43:37;;;;;;;1.30;1.20;;;;;20.80;100798.00;;;;2078386;28;20213;-56
2022/06/03 02:45:00;;;;;;;1.40;1.30;;;;;20.80;100790.00;;;;2078629;28;20705;-59
2022/06/03 02:46:00;;;;;;;1.20;1.10;;;;;20.80;100789.00;;;;2078919;28;20307;-58
2022/06/03 02:47:18;;;;;;;1.40;1.30;;;;;20.80;100781.00;;;;2075940;28;20667;-57
2022/06/03 02:48:25;;;;;;;1.58;1.30;;;;;20.80;100772.00;;;;2071539;28;20226;-60
2022/06/03 02:49:45;;;;;;;1.23;1.13;;;;;20.80;100783.00;;;;2063937;28;20219;-57
2022/06/03 02:51:10;;;;;;;1.58;1.35;;;;;20.80;100780.00;;;;2072184;28;20210;-57
2022/06/03 02:52:49;;;;;;;1.38;1.27;;;;;20.80;100783.00;;;;2079193;28;20214;-56
2022/06/03 02:54:17;;;;;;;1.20;1.05;;;;;20.80;100790.00;;;;2063813;28;20215;-56
2022/06/03 02:55:18;;;;;;;1.25;1.02;;;;;20.80;100786.00;;;;2065651;28;20223;-58
2022/06/03 02:56:52;;;;;;;1.40;1.30;;;;;20.80;100781.00;;;;2080080;28;20690;-59
2022/06/03 02:58:04;;;;;;;1.20;1.10;;;;;20.80;100785.00;;;;2079188;28;20589;-57
2022/06/03 02:59:16;;;;;;;1.30;1.20;;;;;20.80;100786.00;;;;2072870;28;20214;-61
2022/06/03 03:00:32;;;;;;;1.50;1.40;;;;;20.80;100783.00;;;;2063283;28;20703;-61
2022/06/03 03:01:57;;;;;;;1.08;0.98;;;;;20.80;100783.00;;;;2066804;28;20222;-58
2022/06/03 03:03:07;;;;;;;1.30;1.20;;;;;20.80;100786.00;;;;2070366;28;20222;-56
2022/06/03 03:04:35;;;;;;;1.33;1.10;;;;;20.70;100779.00;;;;2070093;28;20238;-63
2022/06/03 03:06:07;;;;;;;1.25;1.15;;;;;20.80;100781.00;;;;2069940;28;20206;-57
2022/06/03 03:07:20;;;;;;;1.25;1.15;;;;;20.80;100782.00;;;;2061802;28;20222;-56
2022/06/03 03:08:27;;;;;;;1.45;1.35;;;;;20.80;100774.00;;;;2070164;28;20346;-56
2022/06/03 03:09:55;;;;;;;1.25;1.15;;;;;20.80;100773.00;;;;2070514;28;20225;-56
2022/06/03 03:11:21;;;;;;;1.60;1.50;;;;;20.80;100774.00;;;;2070837;28;20685;-56
2022/06/03 03:12:33;;;;;;;1.20;1.10;;;;;20.80;100766.00;;;;2054806;28;20211;-57
2022/06/03 03:14:00;;;;;;;1.42;1.20;;;;;20.80;100770.00;;;;2071147;28;20662;-57
2022/06/03 03:15:08;;;;;;;1.40;1.30;;;;;20.80;100772.00;;;;2069606;28;20301;-57
2022/06/03 03:16:26;;;;;;;1.45;1.35;;;;;20.80;100778.00;;;;2061098;28;20301;-57
2022/06/03 03:17:32;;;;;;;1.00;1.00;;;;;20.80;100778.00;;;;2063809;28;20364;-58
2022/06/03 03:18:55;;;;;;;1.42;1.33;;;;;20.80;100781.00;;;;2069700;28;20218;-57
2022/06/03 03:20:21;;;;;;;1.33;1.10;;;;;20.80;100768.00;;;;2069599;28;20210;-56
2022/06/03 03:21:45;;;;;;;1.38;1.27;;;;;20.80;100778.00;;;;2065984;28;20234;-58
2022/06/03 03:23:22;;;;;;;1.05;0.90;;;;;20.80;100779.00;;;;2064406;28;20245;-58
2022/06/03 03:24:41;;;;;;;1.20;1.10;;;;;20.80;100777.00;;;;2068111;28;20221;-57
2022/06/03 03:26:25;;;;;;;1.20;1.10;;;;;20.70;100769.00;;;;2068169;28;20218;-60
2022/06/03 03:27:54;;;;;;;1.40;1.10;;;;;20.70;100767.00;;;;2054093;28;20906;-58
2022/06/03 03:29:15;;;;;;;1.30;1.10;;;;;20.70;100766.00;;;;2073276;28;20572;-55
2022/06/03 03:30:28;;;;;;;1.20;1.10;;;;;20.70;100773.00;;;;2070982;28;20214;-57
2022/06/03 03:31:47;;;;;;;1.40;1.30;;;;;20.70;100708.00;;;;2068385;28;20246;-55
2022/06/03 03:33:18;;;;;;;1.58;1.30;;;;;20.70;100770.00;;;;2064478;28;20236;-57
2022/06/03 03:34:23;;;;;;;1.48;1.10;;;;;20.70;100764.00;;;;2070304;28;20549;-58
2022/06/03 03:35:37;;;;;;;1.67;1.20;;;;;20.70;100771.00;;;;2069188;28;20246;-56
2022/06/03 03:36:56;;;;;;;1.05;0.90;;;;;20.70;100772.00;;;;2063942;28;20219;-57
2022/06/03 03:38:15;;;;;;;1.33;1.23;;;;;20.70;100766.00;;;;2064185;28;20302;-55
2022/06/03 03:39:46;;;;;;;1.40;1.30;;;;;20.70;100774.00;;;;2070258;28;20218;-56
2022/06/03 03:40:50;;;;;;;1.40;1.30;;;;;20.70;100769.00;;;;2069769;28;20210;-56
2022/06/03 03:41:53;;;;;;;1.10;1.00;;;;;20.70;100770.00;;;;2072749;28;20221;-56
2022/06/03 03:43:28;;;;;;;1.40;1.27;;;;;20.70;100769.00;;;;2079068;28;20213;-56
2022/06/03 03:45:06;;;;;;;1.30;1.20;;;;;20.70;100772.00;;;;2078620;28;20704;-55
2022/06/03 03:46:15;;;;;;;1.60;1.40;;;;;20.70;100778.00;;;;2077797;28;20214;-57
2022/06/03 03:47:46;;;;;;;1.27;1.17;;;;;20.70;100766.00;;;;2078016;28;20292;-57
2022/06/03 03:48:46;;;;;;;1.27;1.17;;;;;20.70;100773.00;;;;2077887;28;20633;-58
2022/06/03 03:50:11;;;;;;;1.27;1.17;;;;;20.70;100765.00;;;;2078442;28;20304;-58
2022/06/03 03:51:28;;;;;;;1.50;1.23;;;;;20.70;100771.00;;;;2078040;28;20210;-57
2022/06/03 03:53:16;;;;;;;1.23;1.13;;;;;20.70;100775.00;;;;2077336;28;20229;-57
2022/06/03 03:54:25;;;;;;;1.55;1.45;;;;;20.70;100774.00;;;;2065889;28;20256;-58
2022/06/03 03:55:47;;;;;;;1.30;1.20;;;;;20.70;100762.00;;;;2069340;28;20329;-56
2022/06/03 03:57:02;;;;;;;1.30;1.20;;;;;20.70;100774.00;;;;2070416;28;20576;-57
2022/06/03 03:58:02;;;;;;;1.20;1.10;;;;;20.70;100766.00;;;;2069654;28;20221;-58
2022/06/03 03:59:30;;;;;;;1.50;1.40;;;;;20.70;100773.00;;;;2069928;28;21066;-58
2022/06/03 04:00:36;;;;;;;1.38;1.27;;;;;20.70;100772.00;;;;2069010;28;20225;-57
2022/06/03 04:01:42;;;;;;;1.30;1.20;;;;;20.70;100771.00;;;;2064287;28;20222;-58
2022/06/03 04:03:04;;;;;;;1.35;1.25;;;;;20.70;100764.00;;;;2069197;28;20218;-56
2022/06/03 04:04:08;;;;;;;1.30;1.20;;;;;20.70;100758.00;;;;2069969;28;20214;-57
2022/06/03 04:05:48;;;;;;;1.65;1.55;;;;;20.70;100768.00;;;;2069956;28;20704;-57
2022/06/03 04:07:15;;;;;;;1.30;1.17;;;;;20.80;100760.00;;;;2066461;28;20297;-56
2022/06/03 04:08:30;;;;;;;1.45;1.35;;;;;20.80;100768.00;;;;2059119;28;20265;-59
2022/06/03 04:09:55;;;;;;;1.40;1.30;;;;;20.80;100768.00;;;;2070173;28;20218;-57
2022/06/03 04:11:17;;;;;;;1.50;1.40;;;;;20.80;100769.00;;;;2070576;28;20682;-58
2022/06/03 04:12:20;;;;;;;1.48;1.38;;;;;20.80;100772.00;;;;2070618;28;20690;-57
2022/06/03 04:13:40;;;;;;;1.65;1.20;;;;;20.80;100763.00;;;;2070357;28;20233;-56
2022/06/03 04:15:01;;;;;;;1.50;1.17;;;;;20.80;100766.00;;;;2069849;28;20268;-57
2022/06/03 04:16:26;;;;;;;1.42;1.30;;;;;20.80;100762.00;;;;2069391;28;20213;-59
2022/06/03 04:17:44;;;;;;;1.40;1.30;;;;;20.80;100765.00;;;;2070372;28;20301;-59
2022/06/03 04:18:45;;;;;;;1.50;1.40;;;;;20.80;100757.00;;;;2069253;28;20214;-57
2022/06/03 04:20:06;;;;;;;1.27;1.17;;;;;20.80;100764.00;;;;2070742;28;20214;-57
2022/06/03 04:21:23;;;;;;;1.85;1.20;;;;;20.80;100757.00;;;;2070041;28;20229;-56
2022/06/03 04:22:53;;;;;;;1.40;1.30;;;;;20.80;100766.00;;;;2061463;28;20381;-57
2022/06/03 04:24:29;;;;;;;1.15;1.05;;;;;20.80;100760.00;;;;2065411;28;20741;-57
2022/06/03 04:25:53;;;;;;;1.42;1.33;;;;;20.80;100752.00;;;;2052650;28;21124;-54
2022/06/03 04:26:56;;;;;;;1.33;1.23;;;;;20.80;100752.00;;;;2074003;28;20217;-57
2022/06/03 04:28:29;;;;;;;1.50;1.40;;;;;20.80;100756.00;;;;2077757;28;20213;-59
2022/06/03 04:29:57;;;;;;;1.40;1.30;;;;;20.80;100747.00;;;;2077510;28;20221;-57
2022/06/03 04:31:44;;;;;;;1.67;1.33;;;;;20.80;100757.00;;;;2077995;28;20225;-57
2022/06/03 04:32:49;;;;;;;1.40;1.20;;;;;20.80;100752.00;;;;2077676;28;20225;-57
2022/06/03 04:33:53;;;;;;;1.35;1.25;;;;;20.80;100751.00;;;;2070346;28;20294;-59
2022/06/03 04:35:13;;;;;;;1.25;1.15;;;;;20.70;100751.00;;;;2069930;28;20214;-61
2022/06/03 04:36:46;;;;;;;1.40;1.30;;;;;20.80;100752.00;;;;2061498;28;20667;-56
2022/06/03 04:38:27;;;;;;;1.77;1.48;;;;;20.80;100751.00;;;;2070071;28;20340;-57
2022/06/03 04:39:52;;;;;;;1.40;1.30;;;;;20.80;100763.00;;;;2067806;28;20225;-57
2022/06/03 04:41:31;;;;;;;1.40;1.30;;;;;20.80;100753.00;;;;2069526;28;20202;-56
2022/06/03 04:42:50;;;;;;;1.50;1.40;;;;;20.50;100755.00;;;;2055455;28;20925;-57
2022/06/03 04:44:38;;;;;;;1.38;1.27;;;;;20.80;100756.00;;;;2055858;28;20219;-58
2022/06/03 04:46:00;;;;;;;1.10;1.00;;;;;20.80;100759.00;;;;2031647;29;21071;-60
2022/06/03 04:47:20;;;;;;;1.60;1.50;;;;;20.80;100750.00;;;;2054401;28;20298;-56
2022/06/03 04:48:41;;;;;;;1.60;1.50;;;;;20.80;100759.00;;;;2061867;28;20406;-57
2022/06/03 04:50:19;;;;;;;1.45;1.35;;;;;20.80;100754.00;;;;2076591;28;20297;-58
2022/06/03 04:51:58;;;;;;;1.67;1.40;;;;;20.80;100754.00;;;;2079798;28;20301;-58
2022/06/03 04:53:23;;;;;;;1.30;1.20;;;;;20.80;100752.00;;;;2058563;28;20222;-58
2022/06/03 04:54:57;;;;;;;1.58;1.30;;;;;20.80;100750.00;;;;2062822;28;20231;-58
2022/06/03 04:56:28;;;;;;;1.30;1.20;;;;;20.80;100746.00;;;;2079215;28;20209;-57
2022/06/03 04:58:13;;;;;;;2.15;1.40;;;;;20.80;100752.00;;;;2079987;28;20214;-58
2022/06/03 04:59:41;;;;;;;1.52;1.27;;;;;20.80;100745.00;;;;2062462;28;20734;-58
2022/06/03 05:01:00;;;;;;;2.38;1.60;;;;;20.80;100743.00;;;;2062732;28;20679;-57
2022/06/03 05:02:25;;;;;;;1.70;1.50;;;;;20.80;100744.00;;;;2062425;28;20938;-57
2022/06/03 05:04:03;;;;;;;1.20;1.10;;;;;20.80;100744.00;;;;2062534;28;20223;-58
2022/06/03 05:05:10;;;;;;;1.83;1.33;;;;;20.80;100748.00;;;;2072048;28;20500;-55
2022/06/03 05:06:30;;;;;;;1.60;1.50;;;;;20.80;100747.00;;;;2071653;28;20709;-58
2022/06/03 05:07:39;;;;;;;1.58;1.48;;;;;20.80;100749.00;;;;2079079;28;20712;-58
2022/06/03 05:09:01;;;;;;;1.48;1.38;;;;;20.90;100742.00;;;;2079627;28;20256;-57
2022/06/03 05:10:39;;;;;;;1.52;1.42;;;;;20.90;100744.00;;;;2079774;28;20686;-56
2022/06/03 05:12:02;;;;;;;1.45;1.23;;;;;20.90;100741.00;;;;2075507;28;20710;-55
2022/06/03 05:13:31;;;;;;;1.55;1.40;;;;;20.90;100749.00;;;;2080059;28;20229;-56
2022/06/03 05:15:07;;;;;;;1.60;1.50;;;;;20.90;100746.00;;;;2075341;28;20911;-58
2022/06/03 05:16:29;;;;;;;1.77;1.60;;;;;20.90;100742.00;;;;2070134;28;20268;-57
2022/06/03 05:17:48;;;;;;;1.40;1.30;;;;;20.90;100742.00;;;;2072760;28;20217;-57
2022/06/03 05:18:48;;;;;;;1.52;1.42;;;;;20.90;100736.00;;;;2071613;28;20217;-57
2022/06/03 05:20:03;;;;;;;1.60;1.50;;;;;20.90;100735.00;;;;2069997;28;20745;-55
2022/06/03 05:21:18;;;;;;;1.50;1.40;;;;;20.90;100734.00;;;;2054469;28;20864;-56
2022/06/03 05:22:28;;;;;;;1.65;1.55;;;;;20.90;100741.00;;;;2065285;28;20214;-56
2022/06/03 05:23:55;;;;;;;1.67;1.58;;;;;20.90;100740.00;;;;2086533;28;20217;-54
2022/06/03 05:25:11;;;;;;;1.75;1.65;;;;;20.90;100739.00;;;;2077450;28;20213;-57
2022/06/03 05:26:49;;;;;;;1.92;1.73;;;;;20.90;100740.00;;;;2070303;28;20210;-57
2022/06/03 05:28:10;;;;;;;1.92;1.50;;;;;20.90;100739.00;;;;2071714;28;20202;-55
2022/06/03 05:29:35;;;;;;;2.13;1.65;;;;;20.90;100737.00;;;;2074658;28;20560;-55
2022/06/03 05:30:38;;;;;;;1.63;1.50;;;;;20.90;100742.00;;;;2079586;28;20274;-57
2022/06/03 05:31:56;;;;;;;1.40;1.30;;;;;20.90;100755.00;;;;2079662;28;20198;-58
2022/06/03 05:33:26;;;;;;;1.50;1.40;;;;;20.90;100741.00;;;;2080007;28;20227;-55
2022/06/03 05:34:45;;;;;;;1.60;1.35;;;;;20.90;100749.00;;;;2069303;28;20665;-58
2022/06/03 05:35:54;;;;;;;1.30;1.20;;;;;20.90;100732.00;;;;2062306;28;20271;-58
2022/06/03 05:37:04;;;;;;;1.88;1.77;;;;;20.90;100746.00;;;;2071111;28;20218;-57
2022/06/03 05:38:14;;;;;;;1.70;1.40;;;;;20.90;100729.00;;;;2062785;28;20223;-59
2022/06/03 05:40:02;;;;;;;1.85;1.50;;;;;20.90;100730.00;;;;2066765;28;20244;-58
2022/06/03 05:42:23;;;;;;;1.27;1.17;;;;;20.90;100726.00;;;;2066065;28;20219;-59
2022/06/03 05:43:04;;;;;;;1.50;1.35;;;;;20.80;100721.00;;;;2070406;28;20225;-57
2022/06/03 05:44:09;;;;;;;2.00;1.65;;;;;20.90;100739.00;;;;2070068;28;20213;-57
2022/06/03 05:45:24;;;;;;;1.35;1.25;;;;;21.00;100729.00;;;;2065977;28;20206;-59
2022/06/03 05:47:01;;;;;;;1.60;1.50;;;;;20.90;100732.00;;;;2071157;28;22878;-57
2022/06/03 05:48:25;;;;;;;1.60;1.50;;;;;20.90;100720.00;;;;2045034;28;20223;-56
2022/06/03 05:49:52;;;;;;;1.90;1.70;;;;;20.90;100719.00;;;;2041909;28;20278;-59
2022/06/03 05:50:58;;;;;;;1.70;1.60;;;;;20.90;100730.00;;;;2066408;28;20236;-57
2022/06/03 05:52:05;;;;;;;1.70;1.60;;;;;20.90;100722.00;;;;2074550;28;20209;-60
2022/06/03 05:53:07;;;;;;;1.50;1.40;;;;;20.90;100721.00;;;;2073177;28;20301;-57
2022/06/03 05:54:35;;;;;;;1.60;1.50;;;;;20.90;100723.00;;;;2079682;28;20243;-57
2022/06/03 05:56:13;;;;;;;1.50;1.40;;;;;20.90;100720.00;;;;2080112;28;20210;-56
2022/06/03 05:57:18;;;;;;;1.60;1.50;;;;;20.90;100722.00;;;;2080512;28;20214;-56
2022/06/03 05:58:21;;;;;;;1.80;1.35;;;;;20.90;100722.00;;;;2079938;28;20252;-58
2022/06/03 05:59:37;;;;;;;1.55;1.45;;;;;21.00;100714.00;;;;2079025;28;20225;-58
2022/06/03 06:01:02;;;;;;;1.50;1.30;;;;;20.90;100729.00;;;;2070601;28;20221;-57
2022/06/03 06:02:15;;;;;;;2.13;1.95;;;;;21.00;100723.00;;;;2070927;28;20285;-57
2022/06/03 06:03:30;;;;;;;1.40;1.30;;;;;21.00;100722.00;;;;2071562;28;20781;-57
2022/06/03 06:04:52;;;;;;;1.88;1.75;;;;;20.90;100724.00;;;;2070751;28;20398;-57
2022/06/03 06:06:25;;;;;;;1.65;1.50;;;;;21.00;100718.00;;;;2070383;28;20959;-56
2022/06/03 06:07:34;;;;;;;1.40;1.30;;;;;21.00;100723.00;;;;2055026;28;20214;-57
2022/06/03 06:08:59;;;;;;;1.65;1.55;;;;;21.00;100721.00;;;;2064252;28;20221;-57
2022/06/03 06:10:09;;;;;;;1.40;1.30;;;;;21.00;100721.00;;;;2070655;28;20218;-57
2022/06/03 06:11:35;;;;;;;1.48;1.38;;;;;21.00;100715.00;;;;2060646;28;20777;-58
2022/06/03 06:12:47;;;;;;;1.60;1.50;;;;;21.00;100716.00;;;;2063600;28;20272;-57
2022/06/03 06:14:05;;;;;;;1.70;1.60;;;;;21.00;100716.00;;;;2066488;28;20316;-56
2022/06/03 06:15:42;;;;;;;1.48;1.38;;;;;21.00;100719.00;;;;2071218;28;20218;-57
2022/06/03 06:16:42;;;;;;;1.70;1.60;;;;;21.00;100715.00;;;;2068923;28;20340;-58
2022/06/03 06:17:56;;;;;;;1.60;1.50;;;;;21.00;100709.00;;;;2071350;28;20210;-57
2022/06/03 06:19:36;;;;;;;1.33;1.23;;;;;21.00;100704.00;;;;2070668;28;20397;-57
2022/06/03 06:20:45;;;;;;;1.60;1.50;;;;;21.00;100700.00;;;;2067932;28;20375;-58
2022/06/03 06:21:48;;;;;;;1.60;1.50;;;;;21.00;100698.00;;;;2067672;28;20230;-56
2022/06/03 06:22:49;;;;;;;1.38;1.27;;;;;20.90;100685.00;;;;2078565;28;20233;-59
2022/06/03 06:24:10;;;;;;;1.53;1.43;;;;;21.00;100702.00;;;;2070975;28;20210;-59
2022/06/03 06:25:16;;;;;;;1.60;1.50;;;;;21.00;100703.00;;;;2070449;28;20213;-59
2022/06/03 06:26:44;;;;;;;1.30;1.20;;;;;21.10;100702.00;;;;2063286;28;20207;-57
2022/06/03 06:28:18;;;;;;;1.30;1.20;;;;;21.00;100707.00;;;;2066321;28;20210;-57
2022/06/03 06:29:48;;;;;;;1.70;1.60;;;;;21.00;100696.00;;;;2060414;28;20206;-58
2022/06/03 06:31:12;;;;;;;1.50;1.40;;;;;21.10;100701.00;;;;2069077;28;21052;-55
2022/06/03 06:32:49;;;;;;;1.70;1.60;;;;;21.10;100708.00;;;;2068499;28;20349;-57
2022/06/03 06:34:04;;;;;;;1.60;1.27;;;;;21.10;100701.00;;;;2062074;28;20223;-58
2022/06/03 06:35:38;;;;;;;1.50;1.40;;;;;21.10;100702.00;;;;2065330;28;20215;-57
2022/06/03 06:36:51;;;;;;;1.20;1.10;;;;;21.10;100700.00;;;;2072073;28;20595;-58
2022/06/03 06:37:58;;;;;;;1.33;1.23;;;;;21.10;100698.00;;;;2071363;28;20257;-57